sensor_id;sensor_type;location;lat;lon;timestamp;temperature;humidity
9179;DHT22;71287;48.414;11.478;2024-02-16T00:00:57;6.90;99.90
9179;DHT22;71287;48.414;11.478;2024-02-16T00:03:25;6.90;99.90
9179;DHT22;71287;48.414;11.478;2024-02-16T00:05:52;6.90;99.90
9179;DHT22;71287;48.414;11.478;2024-02-16T00:08:19;6.80;99.90
9179;DHT22;71287;48.414;11.478;2024-02-16T00:10:46;6.70;99.90
9179;DHT22;71287;48.414;11.478;2024-02-16T00:13:13;6.60;99.90
9179;DHT22;71287;48.414;11.478;2024-02-16T00:15:41;6.40;99.90
9179;DHT22;71287;48.414;11.478;2024-02-16T00:18:08;6.30;99.90
9179;DHT22;71287;48.414;11.478;2024-02-16T00:20:35;6.20;99.90
9179;DHT22;71287;48.414;11.478;2024-02-16T00:23:01;6.10;99.90
9179;DHT22;71287;48.414;11.478;2024-02-16T00:25:28;6.10;99.90
9179;DHT22;71287;48.414;11.478;2024-02-16T00:27:55;6.10;99.90
9179;DHT22;71287;48.414;11.478;2024-02-16T00:30:22;6.10;99.90
9179;DHT22;71287;48.414;11.478;2024-02-16T00:32:50;6.20;99.90
9179;DHT22;71287;48.414;11.478;2024-02-16T00:35:18;6.20;99.90
9179;DHT22;71287;48.414;11.478;2024-02-16T00:37:44;6.20;99.90
9179;DHT22;71287;48.414;11.478;2024-02-16T00:40:12;6.20;99.90
9179;DHT22;71287;48.414;11.478;2024-02-16T00:42:39;6.20;99.90
9179;DHT22;71287;48.414;11.478;2024-02-16T00:45:07;6.20;99.90
9179;DHT22;71287;48.414;11.478;2024-02-16T00:47:33;6.20;99.90
9179;DHT22;71287;48.414;11.478;2024-02-16T00:50:02;6.20;99.90
9179;DHT22;71287;48.414;11.478;2024-02-16T00:52:30;6.20;99.90
9179;DHT22;71287;48.414;11.478;2024-02-16T00:54:57;6.20;99.90
9179;DHT22;71287;48.414;11.478;2024-02-16T00:57:24;6.20;99.90
9179;DHT22;71287;48.414;11.478;2024-02-16T00:59:51;6.20;99.90
9179;DHT22;71287;48.414;11.478;2024-02-16T01:02:18;6.30;99.90
9179;DHT22;71287;48.414;11.478;2024-02-16T01:04:44;6.30;99.90
9179;DHT22;71287;48.414;11.478;2024-02-16T01:07:13;6.30;99.90
9179;DHT22;71287;48.414;11.478;2024-02-16T01:09:40;6.30;99.90
9179;DHT22;71287;48.414;11.478;2024-02-16T01:12:07;6.40;99.90
9179;DHT22;71287;48.414;11.478;2024-02-16T01:14:33;6.40;99.90
9179;DHT22;71287;48.414;11.478;2024-02-16T01:17:00;6.50;99.90
9179;DHT22;71287;48.414;11.478;2024-02-16T01:19:27;6.50;99.90
9179;DHT22;71287;48.414;11.478;2024-02-16T01:21:53;6.50;99.90
9179;DHT22;71287;48.414;11.478;2024-02-16T01:24:24;6.50;99.90
9179;DHT22;71287;48.414;11.478;2024-02-16T01:26:51;6.60;99.90
9179;DHT22;71287;48.414;11.478;2024-02-16T01:29:17;6.60;99.90
9179;DHT22;71287;48.414;11.478;2024-02-16T01:31:44;6.60;99.90
9179;DHT22;71287;48.414;11.478;2024-02-16T01:34:11;6.60;99.90
9179;DHT22;71287;48.414;11.478;2024-02-16T01:36:38;6.50;99.90
9179;DHT22;71287;48.414;11.478;2024-02-16T01:39:05;6.50;99.90
9179;DHT22;71287;48.414;11.478;2024-02-16T01:41:33;6.50;99.90
9179;DHT22;71287;48.414;11.478;2024-02-16T01:44:00;6.50;99.90
9179;DHT22;71287;48.414;11.478;2024-02-16T01:46:27;6.50;99.90
9179;DHT22;71287;48.414;11.478;2024-02-16T01:48:54;6.50;99.90
9179;DHT22;71287;48.414;11.478;2024-02-16T01:51:23;6.50;99.90
9179;DHT22;71287;48.414;11.478;2024-02-16T01:53:51;6.50;99.90
9179;DHT22;71287;48.414;11.478;2024-02-16T01:56:20;6.50;99.90
9179;DHT22;71287;48.414;11.478;2024-02-16T01:58:49;6.50;99.90
9179;DHT22;71287;48.414;11.478;2024-02-16T02:01:16;6.40;99.90
9179;DHT22;71287;48.414;11.478;2024-02-16T02:03:42;6.40;99.90
9179;DHT22;71287;48.414;11.478;2024-02-16T02:06:10;6.40;99.90
9179;DHT22;71287;48.414;11.478;2024-02-16T02:08:36;6.50;99.90
9179;DHT22;71287;48.414;11.478;2024-02-16T02:11:03;6.50;99.90
9179;DHT22;71287;48.414;11.478;2024-02-16T02:13:31;6.50;99.90
9179;DHT22;71287;48.414;11.478;2024-02-16T02:15:59;6.60;99.90
9179;DHT22;71287;48.414;11.478;2024-02-16T02:18:27;6.60;99.90
9179;DHT22;71287;48.414;11.478;2024-02-16T02:20:54;6.60;99.90
9179;DHT22;71287;48.414;11.478;2024-02-16T02:23:22;6.60;99.90
9179;DHT22;71287;48.414;11.478;2024-02-16T02:25:49;6.50;99.90
9179;DHT22;71287;48.414;11.478;2024-02-16T02:28:15;6.40;99.90
9179;DHT22;71287;48.414;11.478;2024-02-16T02:30:43;6.30;99.90
9179;DHT22;71287;48.414;11.478;2024-02-16T02:33:11;6.40;99.90
9179;DHT22;71287;48.414;11.478;2024-02-16T02:35:39;6.30;99.90
9179;DHT22;71287;48.414;11.478;2024-02-16T02:38:05;6.30;99.90
9179;DHT22;71287;48.414;11.478;2024-02-16T02:40:33;6.20;99.90
9179;DHT22;71287;48.414;11.478;2024-02-16T02:43:00;6.20;99.90
9179;DHT22;71287;48.414;11.478;2024-02-16T02:45:27;6.20;99.90
9179;DHT22;71287;48.414;11.478;2024-02-16T02:47:54;6.20;99.90
9179;DHT22;71287;48.414;11.478;2024-02-16T02:50:21;6.20;99.90
9179;DHT22;71287;48.414;11.478;2024-02-16T02:52:47;6.20;99.90
9179;DHT22;71287;48.414;11.478;2024-02-16T02:55:14;6.20;99.90
9179;DHT22;71287;48.414;11.478;2024-02-16T02:57:43;6.30;99.90
9179;DHT22;71287;48.414;11.478;2024-02-16T03:00:10;6.30;99.90
9179;DHT22;71287;48.414;11.478;2024-02-16T03:02:37;6.40;99.90
9179;DHT22;71287;48.414;11.478;2024-02-16T03:05:05;6.40;99.90
9179;DHT22;71287;48.414;11.478;2024-02-16T03:07:32;6.40;99.90
9179;DHT22;71287;48.414;11.478;2024-02-16T03:09:59;6.50;99.90
9179;DHT22;71287;48.414;11.478;2024-02-16T03:12:26;6.50;99.90
9179;DHT22;71287;48.414;11.478;2024-02-16T03:14:55;6.50;99.90
9179;DHT22;71287;48.414;11.478;2024-02-16T03:17:21;6.50;99.90
9179;DHT22;71287;48.414;11.478;2024-02-16T03:19:48;6.60;99.90
9179;DHT22;71287;48.414;11.478;2024-02-16T03:22:15;6.60;99.90
9179;DHT22;71287;48.414;11.478;2024-02-16T03:24:42;6.60;99.90
9179;DHT22;71287;48.414;11.478;2024-02-16T03:27:10;6.60;99.90
9179;DHT22;71287;48.414;11.478;2024-02-16T03:29:37;6.50;99.90
9179;DHT22;71287;48.414;11.478;2024-02-16T03:32:05;6.50;99.90
9179;DHT22;71287;48.414;11.478;2024-02-16T03:34:32;6.40;99.90
9179;DHT22;71287;48.414;11.478;2024-02-16T03:36:59;6.40;99.90
9179;DHT22;71287;48.414;11.478;2024-02-16T03:39:25;6.40;99.90
9179;DHT22;71287;48.414;11.478;2024-02-16T03:41:52;6.40;99.90
9179;DHT22;71287;48.414;11.478;2024-02-16T03:44:19;6.30;99.90
9179;DHT22;71287;48.414;11.478;2024-02-16T03:46:47;6.30;99.90
9179;DHT22;71287;48.414;11.478;2024-02-16T03:49:15;6.20;99.90
9179;DHT22;71287;48.414;11.478;2024-02-16T03:51:42;6.20;99.90
9179;DHT22;71287;48.414;11.478;2024-02-16T03:54:08;6.20;99.90
9179;DHT22;71287;48.414;11.478;2024-02-16T03:56:35;6.10;99.90
9179;DHT22;71287;48.414;11.478;2024-02-16T03:59:02;6.10;99.90
9179;DHT22;71287;48.414;11.478;2024-02-16T04:01:30;6.10;99.90
9179;DHT22;71287;48.414;11.478;2024-02-16T04:03:57;6.10;99.90
9179;DHT22;71287;48.414;11.478;2024-02-16T04:06:25;6.00;99.90
9179;DHT22;71287;48.414;11.478;2024-02-16T04:08:52;6.10;99.90
9179;DHT22;71287;48.414;11.478;2024-02-16T04:11:19;6.10;99.90
9179;DHT22;71287;48.414;11.478;2024-02-16T04:13:45;6.20;99.90
9179;DHT22;71287;48.414;11.478;2024-02-16T04:16:12;6.20;99.90
9179;DHT22;71287;48.414;11.478;2024-02-16T04:18:39;6.30;99.90
9179;DHT22;71287;48.414;11.478;2024-02-16T04:21:06;6.30;99.90
9179;DHT22;71287;48.414;11.478;2024-02-16T04:23:34;6.30;99.90
9179;DHT22;71287;48.414;11.478;2024-02-16T04:26:00;6.40;99.90
9179;DHT22;71287;48.414;11.478;2024-02-16T04:28:27;6.40;99.90
9179;DHT22;71287;48.414;11.478;2024-02-16T04:30:54;6.50;99.90
9179;DHT22;71287;48.414;11.478;2024-02-16T04:33:21;6.50;99.90
9179;DHT22;71287;48.414;11.478;2024-02-16T04:35:47;6.50;99.90
9179;DHT22;71287;48.414;11.478;2024-02-16T04:38:16;6.60;99.90
9179;DHT22;71287;48.414;11.478;2024-02-16T04:40:44;6.60;99.90
9179;DHT22;71287;48.414;11.478;2024-02-16T04:43:11;6.60;99.90
9179;DHT22;71287;48.414;11.478;2024-02-16T04:45:37;6.60;99.90
9179;DHT22;71287;48.414;11.478;2024-02-16T04:48:05;6.60;99.90
9179;DHT22;71287;48.414;11.478;2024-02-16T04:50:33;6.70;99.90
9179;DHT22;71287;48.414;11.478;2024-02-16T04:53:00;6.60;99.90
9179;DHT22;71287;48.414;11.478;2024-02-16T04:55:28;6.50;99.90
9179;DHT22;71287;48.414;11.478;2024-02-16T04:57:56;6.40;99.90
9179;DHT22;71287;48.414;11.478;2024-02-16T05:00:24;6.40;99.90
9179;DHT22;71287;48.414;11.478;2024-02-16T05:02:51;6.40;99.90
9179;DHT22;71287;48.414;11.478;2024-02-16T05:05:18;6.30;99.90
9179;DHT22;71287;48.414;11.478;2024-02-16T05:07:48;6.30;99.90
9179;DHT22;71287;48.414;11.478;2024-02-16T05:10:14;6.30;99.90
9179;DHT22;71287;48.414;11.478;2024-02-16T05:12:41;6.30;99.90
9179;DHT22;71287;48.414;11.478;2024-02-16T05:15:10;6.40;99.90
9179;DHT22;71287;48.414;11.478;2024-02-16T05:17:38;6.40;99.90
9179;DHT22;71287;48.414;11.478;2024-02-16T05:20:09;6.40;99.90
9179;DHT22;71287;48.414;11.478;2024-02-16T05:22:41;6.30;99.90
9179;DHT22;71287;48.414;11.478;2024-02-16T05:25:08;6.40;99.90
9179;DHT22;71287;48.414;11.478;2024-02-16T05:27:35;6.40;99.90
9179;DHT22;71287;48.414;11.478;2024-02-16T05:30:03;6.40;99.90
9179;DHT22;71287;48.414;11.478;2024-02-16T05:32:34;6.40;99.90
9179;DHT22;71287;48.414;11.478;2024-02-16T05:35:01;6.40;99.90
9179;DHT22;71287;48.414;11.478;2024-02-16T05:37:30;6.30;99.90
9179;DHT22;71287;48.414;11.478;2024-02-16T05:39:57;6.40;99.90
9179;DHT22;71287;48.414;11.478;2024-02-16T05:42:34;6.30;99.90
9179;DHT22;71287;48.414;11.478;2024-02-16T05:45:00;6.30;99.90
9179;DHT22;71287;48.414;11.478;2024-02-16T05:47:28;6.30;99.90
9179;DHT22;71287;48.414;11.478;2024-02-16T05:49:56;6.30;99.90
9179;DHT22;71287;48.414;11.478;2024-02-16T05:52:24;6.30;99.90
9179;DHT22;71287;48.414;11.478;2024-02-16T05:54:50;6.30;99.90
9179;DHT22;71287;48.414;11.478;2024-02-16T05:57:18;6.30;99.90
9179;DHT22;71287;48.414;11.478;2024-02-16T05:59:45;6.30;99.90
9179;DHT22;71287;48.414;11.478;2024-02-16T06:02:12;6.30;99.90
9179;DHT22;71287;48.414;11.478;2024-02-16T06:04:39;6.30;99.90
9179;DHT22;71287;48.414;11.478;2024-02-16T06:07:07;6.30;99.90
9179;DHT22;71287;48.414;11.478;2024-02-16T06:09:34;6.30;99.90
9179;DHT22;71287;48.414;11.478;2024-02-16T06:12:03;6.30;99.90
9179;DHT22;71287;48.414;11.478;2024-02-16T06:14:32;6.30;99.90
9179;DHT22;71287;48.414;11.478;2024-02-16T06:17:03;6.30;99.90
9179;DHT22;71287;48.414;11.478;2024-02-16T06:19:29;6.30;99.90
9179;DHT22;71287;48.414;11.478;2024-02-16T06:21:56;6.30;99.90
9179;DHT22;71287;48.414;11.478;2024-02-16T06:24:25;6.30;99.90
9179;DHT22;71287;48.414;11.478;2024-02-16T06:26:53;6.30;99.90
9179;DHT22;71287;48.414;11.478;2024-02-16T06:29:20;6.20;99.90
9179;DHT22;71287;48.414;11.478;2024-02-16T06:31:47;6.20;99.90
9179;DHT22;71287;48.414;11.478;2024-02-16T06:34:14;6.20;99.90
9179;DHT22;71287;48.414;11.478;2024-02-16T06:36:41;6.30;99.90
9179;DHT22;71287;48.414;11.478;2024-02-16T06:39:08;6.20;99.90
9179;DHT22;71287;48.414;11.478;2024-02-16T06:41:37;6.30;99.90
9179;DHT22;71287;48.414;11.478;2024-02-16T06:44:04;6.30;99.90
9179;DHT22;71287;48.414;11.478;2024-02-16T06:46:31;6.30;99.90
9179;DHT22;71287;48.414;11.478;2024-02-16T06:48:58;6.30;99.90
9179;DHT22;71287;48.414;11.478;2024-02-16T06:51:25;6.30;99.90
9179;DHT22;71287;48.414;11.478;2024-02-16T06:53:54;6.30;99.90
9179;DHT22;71287;48.414;11.478;2024-02-16T06:56:21;6.30;99.90
9179;DHT22;71287;48.414;11.478;2024-02-16T06:58:49;6.40;99.90
9179;DHT22;71287;48.414;11.478;2024-02-16T07:01:16;6.60;99.90
9179;DHT22;71287;48.414;11.478;2024-02-16T07:03:44;6.80;99.90
9179;DHT22;71287;48.414;11.478;2024-02-16T07:06:11;6.80;99.90
9179;DHT22;71287;48.414;11.478;2024-02-16T07:08:39;6.80;99.90
9179;DHT22;71287;48.414;11.478;2024-02-16T07:11:05;6.80;99.90
9179;DHT22;71287;48.414;11.478;2024-02-16T07:13:33;6.80;99.90
9179;DHT22;71287;48.414;11.478;2024-02-16T07:16:01;6.80;99.90
9179;DHT22;71287;48.414;11.478;2024-02-16T07:18:29;6.90;99.90
9179;DHT22;71287;48.414;11.478;2024-02-16T07:20:56;7.00;99.90
9179;DHT22;71287;48.414;11.478;2024-02-16T07:23:24;7.10;99.90
9179;DHT22;71287;48.414;11.478;2024-02-16T07:25:51;7.30;99.90
9179;DHT22;71287;48.414;11.478;2024-02-16T07:28:20;7.70;99.90
9179;DHT22;71287;48.414;11.478;2024-02-16T07:30:47;8.30;99.90
9179;DHT22;71287;48.414;11.478;2024-02-16T07:33:15;8.80;99.90
9179;DHT22;71287;48.414;11.478;2024-02-16T07:35:42;9.50;99.90
9179;DHT22;71287;48.414;11.478;2024-02-16T07:38:09;10.10;99.90
9179;DHT22;71287;48.414;11.478;2024-02-16T07:40:36;10.70;99.90
9179;DHT22;71287;48.414;11.478;2024-02-16T07:43:03;11.20;99.90
9179;DHT22;71287;48.414;11.478;2024-02-16T07:45:31;11.70;99.90
9179;DHT22;71287;48.414;11.478;2024-02-16T07:47:57;12.20;99.90
9179;DHT22;71287;48.414;11.478;2024-02-16T07:50:26;12.70;99.90
9179;DHT22;71287;48.414;11.478;2024-02-16T07:52:53;13.10;99.90
9179;DHT22;71287;48.414;11.478;2024-02-16T07:55:20;13.20;99.90
9179;DHT22;71287;48.414;11.478;2024-02-16T07:57:48;13.10;99.90
9179;DHT22;71287;48.414;11.478;2024-02-16T08:00:15;12.80;99.90
9179;DHT22;71287;48.414;11.478;2024-02-16T08:02:42;12.70;99.90
9179;DHT22;71287;48.414;11.478;2024-02-16T08:05:10;12.70;99.90
9179;DHT22;71287;48.414;11.478;2024-02-16T08:07:39;12.70;99.90
9179;DHT22;71287;48.414;11.478;2024-02-16T08:10:07;12.80;99.90
9179;DHT22;71287;48.414;11.478;2024-02-16T08:12:33;12.90;99.90
9179;DHT22;71287;48.414;11.478;2024-02-16T08:15:01;13.00;99.90
9179;DHT22;71287;48.414;11.478;2024-02-16T08:17:29;13.00;99.90
9179;DHT22;71287;48.414;11.478;2024-02-16T08:19:56;13.00;99.90
9179;DHT22;71287;48.414;11.478;2024-02-16T08:22:23;13.00;99.90
9179;DHT22;71287;48.414;11.478;2024-02-16T08:24:51;12.90;99.90
9179;DHT22;71287;48.414;11.478;2024-02-16T08:27:18;12.90;99.90
9179;DHT22;71287;48.414;11.478;2024-02-16T08:29:45;12.90;99.90
9179;DHT22;71287;48.414;11.478;2024-02-16T08:32:11;12.90;99.90
9179;DHT22;71287;48.414;11.478;2024-02-16T08:34:38;13.00;99.90
9179;DHT22;71287;48.414;11.478;2024-02-16T08:37:05;13.10;99.90
9179;DHT22;71287;48.414;11.478;2024-02-16T08:39:33;13.10;99.90
9179;DHT22;71287;48.414;11.478;2024-02-16T08:42:01;13.20;99.90
9179;DHT22;71287;48.414;11.478;2024-02-16T08:44:28;13.20;99.90
9179;DHT22;71287;48.414;11.478;2024-02-16T08:46:55;13.20;99.90
9179;DHT22;71287;48.414;11.478;2024-02-16T08:49:22;13.20;99.90
9179;DHT22;71287;48.414;11.478;2024-02-16T08:51:48;13.20;99.90
9179;DHT22;71287;48.414;11.478;2024-02-16T08:54:15;13.10;99.90
9179;DHT22;71287;48.414;11.478;2024-02-16T08:56:44;13.00;99.90
9179;DHT22;71287;48.414;11.478;2024-02-16T08:59:12;13.00;99.90
9179;DHT22;71287;48.414;11.478;2024-02-16T09:01:39;12.90;99.90
9179;DHT22;71287;48.414;11.478;2024-02-16T09:04:06;12.90;99.90
9179;DHT22;71287;48.414;11.478;2024-02-16T09:06:33;12.80;99.90
9179;DHT22;71287;48.414;11.478;2024-02-16T09:09:00;12.80;99.90
9179;DHT22;71287;48.414;11.478;2024-02-16T09:11:27;12.70;99.90
9179;DHT22;71287;48.414;11.478;2024-02-16T09:13:54;12.70;99.90
9179;DHT22;71287;48.414;11.478;2024-02-16T09:16:22;12.70;99.90
9179;DHT22;71287;48.414;11.478;2024-02-16T09:18:49;12.70;99.90
9179;DHT22;71287;48.414;11.478;2024-02-16T09:21:15;12.80;99.90
9179;DHT22;71287;48.414;11.478;2024-02-16T09:23:42;12.80;99.90
9179;DHT22;71287;48.414;11.478;2024-02-16T09:26:09;12.90;99.90
9179;DHT22;71287;48.414;11.478;2024-02-16T09:28:39;13.00;99.90
9179;DHT22;71287;48.414;11.478;2024-02-16T09:31:06;13.20;99.90
9179;DHT22;71287;48.414;11.478;2024-02-16T09:33:35;13.40;99.90
9179;DHT22;71287;48.414;11.478;2024-02-16T09:36:02;13.70;99.90
9179;DHT22;71287;48.414;11.478;2024-02-16T09:38:30;14.00;99.90
9179;DHT22;71287;48.414;11.478;2024-02-16T09:40:57;14.30;99.90
9179;DHT22;71287;48.414;11.478;2024-02-16T09:43:28;14.50;99.90
9179;DHT22;71287;48.414;11.478;2024-02-16T09:45:56;14.80;99.90
9179;DHT22;71287;48.414;11.478;2024-02-16T09:48:25;14.90;99.90
9179;DHT22;71287;48.414;11.478;2024-02-16T09:50:54;15.10;99.90
9179;DHT22;71287;48.414;11.478;2024-02-16T09:53:24;15.30;99.90
9179;DHT22;71287;48.414;11.478;2024-02-16T09:55:51;15.50;99.90
9179;DHT22;71287;48.414;11.478;2024-02-16T09:58:18;15.60;99.90
9179;DHT22;71287;48.414;11.478;2024-02-16T10:00:49;15.70;99.90
9179;DHT22;71287;48.414;11.478;2024-02-16T10:03:26;16.10;99.90
9179;DHT22;71287;48.414;11.478;2024-02-16T10:06:05;16.40;99.70
9179;DHT22;71287;48.414;11.478;2024-02-16T10:08:32;16.60;98.90
9179;DHT22;71287;48.414;11.478;2024-02-16T10:11:03;16.80;98.60
9179;DHT22;71287;48.414;11.478;2024-02-16T10:13:30;17.10;98.50
9179;DHT22;71287;48.414;11.478;2024-02-16T10:16:05;17.30;98.00
9179;DHT22;71287;48.414;11.478;2024-02-16T10:18:34;17.60;97.50
9179;DHT22;71287;48.414;11.478;2024-02-16T10:21:00;17.80;96.80
9179;DHT22;71287;48.414;11.478;2024-02-16T10:23:29;18.00;96.30
9179;DHT22;71287;48.414;11.478;2024-02-16T10:25:56;18.00;95.70
9179;DHT22;71287;48.414;11.478;2024-02-16T10:28:24;17.90;95.50
9179;DHT22;71287;48.414;11.478;2024-02-16T10:30:58;18.00;95.10
9179;DHT22;71287;48.414;11.478;2024-02-16T10:33:28;18.00;94.70
9179;DHT22;71287;48.414;11.478;2024-02-16T10:35:56;18.10;94.30
9179;DHT22;71287;48.414;11.478;2024-02-16T10:38:23;18.20;94.00
9179;DHT22;71287;48.414;11.478;2024-02-16T10:40:53;18.40;94.00
9179;DHT22;71287;48.414;11.478;2024-02-16T10:43:21;18.40;93.60
9179;DHT22;71287;48.414;11.478;2024-02-16T10:45:49;18.60;93.70
9179;DHT22;71287;48.414;11.478;2024-02-16T10:48:18;18.60;92.60
9179;DHT22;71287;48.414;11.478;2024-02-16T10:50:45;18.60;92.50
9179;DHT22;71287;48.414;11.478;2024-02-16T10:53:19;18.70;92.10
9179;DHT22;71287;48.414;11.478;2024-02-16T10:55:48;18.80;91.70
9179;DHT22;71287;48.414;11.478;2024-02-16T10:58:18;18.90;91.20
9179;DHT22;71287;48.414;11.478;2024-02-16T11:00:49;18.90;91.10
9179;DHT22;71287;48.414;11.478;2024-02-16T11:03:17;18.80;90.90
9179;DHT22;71287;48.414;11.478;2024-02-16T11:05:44;18.90;90.90
9179;DHT22;71287;48.414;11.478;2024-02-16T11:08:12;19.00;90.60
9179;DHT22;71287;48.414;11.478;2024-02-16T11:10:39;19.10;90.50
9179;DHT22;71287;48.414;11.478;2024-02-16T11:13:06;19.10;90.30
9179;DHT22;71287;48.414;11.478;2024-02-16T11:15:35;19.20;90.00
9179;DHT22;71287;48.414;11.478;2024-02-16T11:18:04;19.20;89.60
9179;DHT22;71287;48.414;11.478;2024-02-16T11:20:37;19.20;89.70
9179;DHT22;71287;48.414;11.478;2024-02-16T11:23:05;19.30;89.70
9179;DHT22;71287;48.414;11.478;2024-02-16T11:25:33;19.30;88.70
9179;DHT22;71287;48.414;11.478;2024-02-16T11:28:02;19.20;88.30
9179;DHT22;71287;48.414;11.478;2024-02-16T11:30:32;19.20;88.00
9179;DHT22;71287;48.414;11.478;2024-02-16T11:33:01;19.10;87.80
9179;DHT22;71287;48.414;11.478;2024-02-16T11:35:27;19.10;87.70
9179;DHT22;71287;48.414;11.478;2024-02-16T11:37:55;19.20;88.00
9179;DHT22;71287;48.414;11.478;2024-02-16T11:40:22;19.20;87.60
9179;DHT22;71287;48.414;11.478;2024-02-16T11:42:53;19.40;88.00
9179;DHT22;71287;48.414;11.478;2024-02-16T11:45:23;19.40;87.40
9179;DHT22;71287;48.414;11.478;2024-02-16T11:47:50;19.40;87.60
9179;DHT22;71287;48.414;11.478;2024-02-16T11:50:18;19.40;87.30
9179;DHT22;71287;48.414;11.478;2024-02-16T11:52:47;19.30;87.00
9179;DHT22;71287;48.414;11.478;2024-02-16T11:55:13;19.30;87.00
9179;DHT22;71287;48.414;11.478;2024-02-16T11:57:41;19.40;87.30
9179;DHT22;71287;48.414;11.478;2024-02-16T12:00:10;19.50;86.90
9179;DHT22;71287;48.414;11.478;2024-02-16T12:02:40;19.60;86.80
9179;DHT22;71287;48.414;11.478;2024-02-16T12:05:07;19.70;86.00
9179;DHT22;71287;48.414;11.478;2024-02-16T12:07:38;19.70;85.40
9179;DHT22;71287;48.414;11.478;2024-02-16T12:10:06;19.70;85.20
9179;DHT22;71287;48.414;11.478;2024-02-16T12:12:34;19.60;85.00
9179;DHT22;71287;48.414;11.478;2024-02-16T12:15:01;19.50;85.40
9179;DHT22;71287;48.414;11.478;2024-02-16T12:17:29;19.40;85.30
9179;DHT22;71287;48.414;11.478;2024-02-16T12:19:55;19.30;85.40
9179;DHT22;71287;48.414;11.478;2024-02-16T12:22:22;19.30;85.30
9179;DHT22;71287;48.414;11.478;2024-02-16T12:24:51;19.20;84.80
9179;DHT22;71287;48.414;11.478;2024-02-16T12:27:17;19.20;85.60
9179;DHT22;71287;48.414;11.478;2024-02-16T12:29:44;19.30;85.80
9179;DHT22;71287;48.414;11.478;2024-02-16T12:32:11;19.30;85.90
9179;DHT22;71287;48.414;11.478;2024-02-16T12:34:43;19.40;85.80
9179;DHT22;71287;48.414;11.478;2024-02-16T12:37:10;19.60;86.10
9179;DHT22;71287;48.414;11.478;2024-02-16T12:39:37;19.70;85.60
9179;DHT22;71287;48.414;11.478;2024-02-16T12:42:06;19.70;85.60
9179;DHT22;71287;48.414;11.478;2024-02-16T12:44:33;19.80;86.50
9179;DHT22;71287;48.414;11.478;2024-02-16T12:47:00;19.90;85.40
9179;DHT22;71287;48.414;11.478;2024-02-16T12:49:26;20.10;85.40
9179;DHT22;71287;48.414;11.478;2024-02-16T12:51:53;20.20;84.80
9179;DHT22;71287;48.414;11.478;2024-02-16T12:54:20;20.30;84.50
9179;DHT22;71287;48.414;11.478;2024-02-16T12:56:48;20.50;84.00
9179;DHT22;71287;48.414;11.478;2024-02-16T12:59:15;20.60;83.70
9179;DHT22;71287;48.414;11.478;2024-02-16T13:01:42;20.80;83.30
9179;DHT22;71287;48.414;11.478;2024-02-16T13:04:09;20.90;82.50
9179;DHT22;71287;48.414;11.478;2024-02-16T13:06:35;20.90;82.10
9179;DHT22;71287;48.414;11.478;2024-02-16T13:09:02;20.90;81.50
9179;DHT22;71287;48.414;11.478;2024-02-16T13:11:31;20.90;80.50
9179;DHT22;71287;48.414;11.478;2024-02-16T13:13:59;20.80;79.40
9179;DHT22;71287;48.414;11.478;2024-02-16T13:16:27;20.70;78.50
9179;DHT22;71287;48.414;11.478;2024-02-16T13:18:54;20.70;78.10
9179;DHT22;71287;48.414;11.478;2024-02-16T13:21:20;20.60;77.10
9179;DHT22;71287;48.414;11.478;2024-02-16T13:23:47;20.40;76.30
9179;DHT22;71287;48.414;11.478;2024-02-16T13:26:14;20.30;76.40
9179;DHT22;71287;48.414;11.478;2024-02-16T13:28:41;20.20;75.80
9179;DHT22;71287;48.414;11.478;2024-02-16T13:31:08;20.00;75.40
9179;DHT22;71287;48.414;11.478;2024-02-16T13:33:36;19.90;76.00
9179;DHT22;71287;48.414;11.478;2024-02-16T13:36:04;19.80;76.70
9179;DHT22;71287;48.414;11.478;2024-02-16T13:38:30;19.80;77.00
9179;DHT22;71287;48.414;11.478;2024-02-16T13:40:57;19.80;77.50
9179;DHT22;71287;48.414;11.478;2024-02-16T13:43:24;19.80;77.90
9179;DHT22;71287;48.414;11.478;2024-02-16T13:45:53;19.80;77.70
9179;DHT22;71287;48.414;11.478;2024-02-16T13:48:20;19.80;77.40
9179;DHT22;71287;48.414;11.478;2024-02-16T13:50:49;19.70;77.90
9179;DHT22;71287;48.414;11.478;2024-02-16T13:53:17;19.70;77.90
9179;DHT22;71287;48.414;11.478;2024-02-16T13:55:44;19.70;78.00
9179;DHT22;71287;48.414;11.478;2024-02-16T13:58:11;19.70;77.30
9179;DHT22;71287;48.414;11.478;2024-02-16T14:00:37;19.60;76.90
9179;DHT22;71287;48.414;11.478;2024-02-16T14:03:06;19.60;77.10
9179;DHT22;71287;48.414;11.478;2024-02-16T14:05:35;19.50;77.70
9179;DHT22;71287;48.414;11.478;2024-02-16T14:08:04;19.40;77.80
9179;DHT22;71287;48.414;11.478;2024-02-16T14:10:31;19.20;77.50
9179;DHT22;71287;48.414;11.478;2024-02-16T14:12:58;19.10;77.80
9179;DHT22;71287;48.414;11.478;2024-02-16T14:15:25;19.00;78.40
9179;DHT22;71287;48.414;11.478;2024-02-16T14:17:51;18.90;78.90
9179;DHT22;71287;48.414;11.478;2024-02-16T14:20:19;18.90;79.40
9179;DHT22;71287;48.414;11.478;2024-02-16T14:22:47;18.80;79.30
9179;DHT22;71287;48.414;11.478;2024-02-16T14:25:15;18.70;79.20
9179;DHT22;71287;48.414;11.478;2024-02-16T14:27:42;18.60;79.50
9179;DHT22;71287;48.414;11.478;2024-02-16T14:30:11;18.50;80.70
9179;DHT22;71287;48.414;11.478;2024-02-16T14:32:38;18.50;80.60
9179;DHT22;71287;48.414;11.478;2024-02-16T14:35:05;18.30;81.10
9179;DHT22;71287;48.414;11.478;2024-02-16T14:37:32;18.20;81.50
9179;DHT22;71287;48.414;11.478;2024-02-16T14:39:59;18.10;82.10
9179;DHT22;71287;48.414;11.478;2024-02-16T14:42:28;18.00;82.60
9179;DHT22;71287;48.414;11.478;2024-02-16T14:44:55;18.00;83.40
9179;DHT22;71287;48.414;11.478;2024-02-16T14:47:22;17.90;83.60
9179;DHT22;71287;48.414;11.478;2024-02-16T14:49:48;17.90;84.20
9179;DHT22;71287;48.414;11.478;2024-02-16T14:52:15;17.90;84.70
9179;DHT22;71287;48.414;11.478;2024-02-16T14:54:42;17.80;85.10
9179;DHT22;71287;48.414;11.478;2024-02-16T14:57:09;17.80;85.70
9179;DHT22;71287;48.414;11.478;2024-02-16T14:59:37;17.80;86.30
9179;DHT22;71287;48.414;11.478;2024-02-16T15:02:04;17.70;86.80
9179;DHT22;71287;48.414;11.478;2024-02-16T15:04:31;17.80;87.30
9179;DHT22;71287;48.414;11.478;2024-02-16T15:06:58;17.70;87.30
9179;DHT22;71287;48.414;11.478;2024-02-16T15:09:25;17.70;87.50
9179;DHT22;71287;48.414;11.478;2024-02-16T15:11:51;17.70;87.40
9179;DHT22;71287;48.414;11.478;2024-02-16T15:14:18;17.70;87.80
9179;DHT22;71287;48.414;11.478;2024-02-16T15:16:46;17.70;88.60
9179;DHT22;71287;48.414;11.478;2024-02-16T15:19:13;17.60;88.70
9179;DHT22;71287;48.414;11.478;2024-02-16T15:21:40;17.50;89.90
9179;DHT22;71287;48.414;11.478;2024-02-16T15:24:07;17.40;90.30
9179;DHT22;71287;48.414;11.478;2024-02-16T15:26:33;17.20;90.30
9179;DHT22;71287;48.414;11.478;2024-02-16T15:29:00;17.10;90.70
9179;DHT22;71287;48.414;11.478;2024-02-16T15:31:27;17.10;91.10
9179;DHT22;71287;48.414;11.478;2024-02-16T15:33:55;16.90;91.10
9179;DHT22;71287;48.414;11.478;2024-02-16T15:36:22;16.80;91.20
9179;DHT22;71287;48.414;11.478;2024-02-16T15:38:49;16.70;91.20